createdAt,value
2018-03-04T00:00:11.912Z,89.80
2018-03-04T00:02:38.358Z,91.65
2018-03-04T00:05:04.783Z,95.00
2018-03-04T00:07:31.356Z,96.53
2018-03-04T00:09:57.784Z,94.95
2018-03-04T00:12:24.218Z,95.65
2018-03-04T00:14:50.658Z,89.15
2018-03-04T00:17:17.257Z,90.78
2018-03-04T00:19:43.711Z,105.68
2018-03-04T00:22:10.238Z,88.72
2018-03-04T00:24:36.666Z,88.40
2018-03-04T00:27:03.885Z,96.18
2018-03-04T00:29:30.607Z,91.78
2018-03-04T00:31:57.055Z,99.60
2018-03-04T00:34:24.018Z,95.90
2018-03-04T00:36:50.427Z,96.97
2018-03-04T00:39:16.907Z,92.18
2018-03-04T00:41:43.315Z,79.90
2018-03-04T00:44:09.774Z,91.28
2018-03-04T00:46:36.295Z,88.50
2018-03-04T00:49:02.721Z,98.32
2018-03-04T00:51:29.261Z,87.32
2018-03-04T00:53:55.673Z,100.32
2018-03-04T00:56:22.085Z,91.45
2018-03-04T00:58:49.216Z,90.95
2018-03-04T01:01:15.658Z,94.78
2018-03-04T01:03:42.790Z,92.25
2018-03-04T01:06:09.221Z,86.25
2018-03-04T01:08:35.627Z,85.62
2018-03-04T01:11:02.051Z,92.53
2018-03-04T01:13:28.502Z,89.35
2018-03-04T01:15:54.957Z,85.82
2018-03-04T01:18:21.443Z,90.80
2018-03-04T01:20:47.884Z,83.45
2018-03-04T01:23:14.312Z,89.93
2018-03-04T01:25:40.791Z,91.70
2018-03-04T01:28:07.377Z,79.00
2018-03-04T01:30:33.769Z,92.10
2018-03-04T01:33:00.943Z,85.90
2018-03-04T01:35:27.406Z,83.78
2018-03-04T01:37:53.837Z,85.47
2018-03-04T01:40:20.253Z,90.20
2018-03-04T01:42:46.785Z,86.50
2018-03-04T01:45:13.215Z,91.35
2018-03-04T01:47:39.646Z,92.37
2018-03-04T01:50:06.049Z,85.90
2018-03-04T01:52:33.187Z,84.55
2018-03-04T01:55:00.741Z,85.50
2018-03-04T01:57:27.220Z,68.00
2018-03-04T01:59:53.609Z,79.20
2018-03-04T02:02:20.076Z,82.35
2018-03-04T02:04:46.503Z,77.70
2018-03-04T02:07:13.954Z,75.22
2018-03-04T02:09:41.109Z,70.57
2018-03-04T02:12:07.510Z,69.28
2018-03-04T02:14:33.886Z,62.45
2018-03-04T02:17:00.301Z,68.07
2018-03-04T02:19:26.746Z,71.25
2018-03-04T02:21:53.121Z,69.37
2018-03-04T02:24:19.571Z,62.22
2018-03-04T02:26:46.720Z,69.05
2018-03-04T02:29:13.166Z,78.12
2018-03-04T02:31:40.331Z,78.80
2018-03-04T02:34:06.751Z,82.60
2018-03-04T02:36:33.968Z,69.32
2018-03-04T02:39:00.490Z,69.43
2018-03-04T02:41:26.921Z,71.57
2018-03-04T02:43:53.348Z,71.85
2018-03-04T02:46:19.766Z,67.72
2018-03-04T02:48:46.300Z,74.43
2018-03-04T02:51:12.723Z,77.12
2018-03-04T02:53:39.106Z,72.35
2018-03-04T02:56:05.521Z,73.57
2018-03-04T02:58:31.929Z,73.87
2018-03-04T03:00:58.361Z,74.55
2018-03-04T03:03:24.907Z,72.37
2018-03-04T03:05:51.335Z,71.45
2018-03-04T03:08:17.781Z,67.65
2018-03-04T03:10:44.215Z,72.60
2018-03-04T03:13:11.448Z,76.45
2018-03-04T03:15:37.958Z,80.75
2018-03-04T03:18:04.373Z,74.85
2018-03-04T03:20:31.562Z,77.57
2018-03-04T03:22:57.987Z,84.10
2018-03-04T03:25:24.404Z,78.35
2018-03-04T03:27:50.816Z,76.65
2018-03-04T03:30:17.265Z,67.70
2018-03-04T03:32:43.701Z,76.78
2018-03-04T03:35:10.233Z,78.28
2018-03-04T03:37:36.650Z,73.75
2018-03-04T03:40:03.789Z,75.95
2018-03-04T03:42:30.994Z,84.40
2018-03-04T03:44:57.460Z,72.75
2018-03-04T03:47:23.878Z,75.10
2018-03-04T03:49:50.309Z,56.95
2018-03-04T03:52:16.735Z,65.75
2018-03-04T03:54:43.175Z,56.08
2018-03-04T03:57:09.622Z,59.65
2018-03-04T03:59:36.098Z,66.25
2018-03-04T04:02:02.505Z,49.75
2018-03-04T04:04:29.662Z,50.00
2018-03-04T04:06:56.817Z,57.35
2018-03-04T04:09:23.269Z,53.67
2018-03-04T04:11:49.677Z,58.83
2018-03-04T04:14:16.097Z,70.62
2018-03-04T04:16:43.250Z,66.45
2018-03-04T04:19:10.409Z,52.58
2018-03-04T04:21:37.601Z,60.55
2018-03-04T04:24:04.005Z,53.05
2018-03-04T04:26:30.450Z,56.90
2018-03-04T04:28:56.834Z,51.97
2018-03-04T04:31:23.266Z,47.90
2018-03-04T04:33:49.738Z,35.83
2018-03-04T04:36:16.337Z,57.60
2018-03-04T04:38:43.469Z,48.15
2018-03-04T04:41:09.882Z,50.95
2018-03-04T04:43:36.326Z,59.35
2018-03-04T04:46:02.775Z,50.75
2018-03-04T04:48:29.265Z,47.83
2018-03-04T04:50:55.687Z,39.05
2018-03-04T04:53:22.201Z,47.53
2018-03-04T04:55:49.375Z,47.30
2018-03-04T04:58:15.801Z,52.53
2018-03-04T05:00:42.208Z,53.33
2018-03-04T05:03:09.362Z,43.47
2018-03-04T05:05:36.523Z,54.33
2018-03-04T05:08:02.908Z,45.72
2018-03-04T05:10:29.359Z,47.08
2018-03-04T05:12:56.514Z,46.13
2018-03-04T05:15:23.691Z,39.60
2018-03-04T05:17:50.095Z,42.80
2018-03-04T05:20:17.318Z,47.10
2018-03-04T05:22:43.725Z,44.78
2018-03-04T05:25:10.151Z,44.85
2018-03-04T05:27:36.579Z,43.97
2018-03-04T05:30:02.940Z,35.75
2018-03-04T05:32:29.435Z,29.23
2018-03-04T05:34:55.870Z,29.17
2018-03-04T05:37:22.340Z,36.35
2018-03-04T05:39:48.709Z,33.55
2018-03-04T05:42:15.898Z,30.45
2018-03-04T05:44:42.461Z,19.15
2018-03-04T05:47:09.191Z,12.43
2018-03-04T05:49:35.654Z,20.33
2018-03-04T05:52:02.909Z,17.67
2018-03-04T05:54:30.086Z,25.12
2018-03-04T05:56:56.499Z,24.23
2018-03-04T05:59:23.688Z,19.60
2018-03-04T06:01:50.119Z,15.30
2018-03-04T06:04:16.532Z,11.80
2018-03-04T06:06:42.925Z,18.30
2018-03-04T06:09:09.353Z,20.33
2018-03-04T06:11:35.754Z,20.45
2018-03-04T06:14:02.269Z,20.55
2018-03-04T06:16:28.641Z,20.67
2018-03-04T06:18:55.089Z,21.60
2018-03-04T06:21:21.501Z,23.25
2018-03-04T06:23:47.941Z,18.23
2018-03-04T06:26:14.360Z,19.23
2018-03-04T06:28:40.792Z,17.83
2018-03-04T06:31:07.213Z,17.27
2018-03-04T06:33:34.337Z,19.08
2018-03-04T06:36:00.806Z,20.42
2018-03-04T06:38:27.941Z,15.63
2018-03-04T06:40:54.450Z,19.90
2018-03-04T06:43:20.894Z,13.00
2018-03-04T06:45:47.305Z,10.10
2018-03-04T06:48:13.701Z,16.52
2018-03-04T06:50:40.110Z,11.80
2018-03-04T06:53:06.565Z,23.38
2018-03-04T06:55:32.973Z,15.38
2018-03-04T06:57:59.434Z,13.65
2018-03-04T07:00:25.874Z,14.87
2018-03-04T07:02:52.296Z,12.73
2018-03-04T07:05:18.820Z,13.00
2018-03-04T07:07:45.210Z,11.93
2018-03-04T07:10:11.666Z,15.80
2018-03-04T07:12:38.094Z,7.80
2018-03-04T07:15:04.569Z,10.18
2018-03-04T07:17:31.757Z,9.35
2018-03-04T07:19:58.156Z,8.95
2018-03-04T07:22:25.345Z,12.30
2018-03-04T07:24:51.859Z,12.27
2018-03-04T07:27:19.077Z,17.27
2018-03-04T07:29:45.474Z,13.33
2018-03-04T07:32:12.173Z,13.23
2018-03-04T07:34:39.510Z,10.13
2018-03-04T07:37:06.695Z,10.38
2018-03-04T07:39:33.219Z,13.07
2018-03-04T07:41:59.705Z,7.53
2018-03-04T07:44:26.225Z,10.02
2018-03-04T07:46:52.642Z,11.32
2018-03-04T07:49:19.105Z,10.77
2018-03-04T07:51:45.506Z,8.05
2018-03-04T07:54:12.037Z,8.38
2018-03-04T07:56:38.455Z,5.70
2018-03-04T07:59:07.715Z,6.57
2018-03-04T08:01:35.461Z,8.43
2018-03-04T08:04:01.919Z,8.27
2018-03-04T08:06:29.117Z,8.52
2018-03-04T08:08:55.617Z,10.98
2018-03-04T08:11:22.066Z,5.68
2018-03-04T08:13:48.512Z,9.85
2018-03-04T08:16:15.118Z,8.93
2018-03-04T08:18:41.599Z,9.30
2018-03-04T08:21:08.012Z,11.20
2018-03-04T08:23:34.419Z,12.65
2018-03-04T08:26:12.952Z,11.55
2018-03-04T08:28:39.473Z,11.15
2018-03-04T08:31:05.908Z,11.82
2018-03-04T08:33:32.420Z,4.22
2018-03-04T08:35:59.771Z,11.75
2018-03-04T08:38:27.687Z,9.70
2018-03-04T08:40:54.456Z,8.00
2018-03-04T08:43:20.867Z,9.02
2018-03-04T08:45:47.286Z,10.57
2018-03-04T08:48:13.754Z,8.55
2018-03-04T08:50:40.168Z,6.22
2018-03-04T08:53:06.597Z,8.18
2018-03-04T08:55:33.074Z,5.53
2018-03-04T08:58:00.277Z,6.12
2018-03-04T09:00:26.716Z,4.95
2018-03-04T09:02:53.125Z,6.20
2018-03-04T09:05:19.565Z,6.03
2018-03-04T09:07:46.065Z,9.68
2018-03-04T09:10:13.327Z,4.65
2018-03-04T09:12:39.769Z,6.28
2018-03-04T09:15:06.225Z,6.50
2018-03-04T09:17:32.613Z,8.35
2018-03-04T09:19:59.784Z,12.15
2018-03-04T09:22:26.262Z,9.63
2018-03-04T09:24:52.775Z,10.90
2018-03-04T09:27:19.231Z,10.10
2018-03-04T09:29:45.694Z,8.60
2018-03-04T09:32:12.876Z,7.85
2018-03-04T09:34:39.306Z,7.43
2018-03-04T09:37:05.804Z,13.20
2018-03-04T09:39:32.256Z,11.98
2018-03-04T09:41:58.892Z,9.10
2018-03-04T09:44:25.360Z,11.15
2018-03-04T09:46:51.928Z,10.15
2018-03-04T09:49:19.230Z,9.23
2018-03-04T09:51:45.680Z,6.37
2018-03-04T09:54:12.153Z,11.75
2018-03-04T09:56:38.818Z,6.75
2018-03-04T09:59:05.340Z,10.25
2018-03-04T10:01:31.793Z,17.48
2018-03-04T10:03:58.385Z,13.82
2018-03-04T10:06:24.878Z,10.65
2018-03-04T10:08:51.342Z,8.77
2018-03-04T10:11:18.273Z,13.20
2018-03-04T10:13:44.737Z,11.25
2018-03-04T10:16:12.916Z,12.98
2018-03-04T10:18:40.202Z,13.83
2018-03-04T10:21:06.784Z,11.85
2018-03-04T10:23:33.294Z,8.40
2018-03-04T10:25:59.836Z,10.90
2018-03-04T10:28:26.419Z,12.60
2018-03-04T10:30:52.882Z,15.87
2018-03-04T10:33:19.419Z,7.73
2018-03-04T10:35:45.879Z,11.00
2018-03-04T10:38:12.499Z,14.63
2018-03-04T10:40:38.944Z,9.63
2018-03-04T10:43:05.805Z,9.33
2018-03-04T10:45:32.333Z,11.50
2018-03-04T10:47:58.771Z,14.20
2018-03-04T10:50:25.333Z,13.90
2018-03-04T10:52:51.804Z,7.90
2018-03-04T10:55:18.346Z,15.67
2018-03-04T10:57:44.891Z,17.27
2018-03-04T11:00:21.215Z,12.17
2018-03-04T11:03:03.340Z,13.13
2018-03-04T11:05:29.886Z,16.00
2018-03-04T11:07:57.090Z,16.00
2018-03-04T11:10:23.528Z,22.67
2018-03-04T11:12:50.010Z,11.27
2018-03-04T11:15:16.574Z,13.40
2018-03-04T11:17:42.918Z,19.10
2018-03-04T11:20:10.195Z,23.97
2018-03-04T11:22:36.681Z,13.70
2018-03-04T11:25:04.003Z,17.77
2018-03-04T11:27:30.543Z,18.97
2018-03-04T11:29:57.323Z,18.23
2018-03-04T11:32:24.582Z,18.60
2018-03-04T11:34:52.845Z,17.13
2018-03-04T11:37:20.056Z,13.23
2018-03-04T11:39:46.480Z,21.63
2018-03-04T11:42:13.822Z,22.40
2018-03-04T11:44:41.641Z,27.73
2018-03-04T11:47:08.806Z,20.30
2018-03-04T11:49:35.293Z,19.03
2018-03-04T11:52:02.560Z,20.23
2018-03-04T11:54:29.079Z,13.60
2018-03-04T11:56:55.593Z,20.23
2018-03-04T11:59:22.050Z,23.63
2018-03-04T12:01:49.230Z,17.93
2018-03-04T12:04:16.367Z,18.23
2018-03-04T12:06:42.849Z,14.40
2018-03-04T12:09:09.290Z,18.10
2018-03-04T12:11:35.802Z,16.63
2018-03-04T12:14:02.242Z,16.53
2018-03-04T12:16:28.894Z,17.40
2018-03-04T12:18:55.479Z,17.13
2018-03-04T12:21:22.702Z,16.50
2018-03-04T12:23:49.278Z,18.90
2018-03-04T12:26:16.642Z,15.33
2018-03-04T12:28:43.246Z,18.30
2018-03-04T12:31:09.792Z,19.27
2018-03-04T12:33:37.058Z,16.47
2018-03-04T12:36:04.336Z,17.60
2018-03-04T12:38:31.672Z,17.33
2018-03-04T12:40:59.326Z,24.43
2018-03-04T12:43:27.616Z,21.43
2018-03-04T12:45:54.096Z,24.40
2018-03-04T12:48:21.543Z,17.70
2018-03-04T12:50:48.025Z,25.67
2018-03-04T12:53:16.223Z,20.23
2018-03-04T12:55:42.724Z,23.97
2018-03-04T12:58:09.175Z,25.20
2018-03-04T13:00:35.661Z,22.97
2018-03-04T13:03:02.404Z,26.73
2018-03-04T13:05:28.819Z,22.77
2018-03-04T13:07:55.976Z,25.90
2018-03-04T13:10:22.496Z,22.37
2018-03-04T13:12:48.919Z,23.53
2018-03-04T13:15:15.574Z,21.83
2018-03-04T13:17:41.981Z,20.67
2018-03-04T13:20:08.469Z,29.13
2018-03-04T13:22:34.940Z,26.00
2018-03-04T13:25:01.439Z,30.30
2018-03-04T13:27:28.703Z,26.97
2018-03-04T13:29:55.919Z,27.87
2018-03-04T13:32:22.524Z,25.53
2018-03-04T13:34:48.952Z,28.50
2018-03-04T13:37:15.391Z,22.67
2018-03-04T13:39:42.038Z,28.17
2018-03-04T13:42:08.474Z,25.50
2018-03-04T13:44:34.990Z,23.77
2018-03-04T13:47:01.431Z,21.40
2018-03-04T13:49:27.954Z,24.47
2018-03-04T13:51:54.405Z,23.07
2018-03-04T13:54:20.943Z,28.20
2018-03-04T13:59:45.603Z,23.10
2018-03-04T14:02:12.160Z,24.40
2018-03-04T14:04:38.817Z,19.60
2018-03-04T14:07:05.258Z,15.47
2018-03-04T14:12:28.949Z,11.80
2018-03-04T14:14:56.185Z,12.57
2018-03-04T14:17:22.841Z,18.23
2018-03-04T14:19:50.335Z,12.03
2018-03-04T14:22:16.796Z,16.80
2018-03-04T14:24:43.315Z,13.83
2018-03-04T14:27:10.616Z,14.50
2018-03-04T14:29:37.830Z,17.73
2018-03-04T14:32:04.343Z,13.83
2018-03-04T14:34:30.969Z,10.37
2018-03-04T14:36:57.485Z,19.50
2018-03-04T14:39:24.413Z,10.33
2018-03-04T14:41:51.727Z,13.93
2018-03-04T14:44:18.463Z,19.33
2018-03-04T14:46:44.983Z,20.20
2018-03-04T14:49:11.642Z,21.00
2018-03-04T14:51:38.336Z,29.73
2018-03-04T14:54:04.991Z,15.63
2018-03-04T14:56:31.736Z,17.77
2018-03-04T14:58:58.222Z,25.10
2018-03-04T15:01:24.805Z,21.40
2018-03-04T15:03:51.368Z,21.80
2018-03-04T15:06:17.829Z,27.93
2018-03-04T15:08:44.318Z,26.40
2018-03-04T15:11:12.722Z,27.97
2018-03-04T15:13:40.073Z,28.43
2018-03-04T15:16:06.594Z,23.63
2018-03-04T15:18:33.135Z,17.10
2018-03-04T15:23:56.116Z,17.53
2018-03-04T15:26:22.642Z,33.40
2018-03-04T15:28:49.144Z,18.53
2018-03-04T15:31:15.640Z,19.87
2018-03-04T15:33:42.200Z,27.67
2018-03-04T15:36:09.461Z,23.73
2018-03-04T15:38:35.897Z,20.37
2018-03-04T15:41:02.532Z,31.43
2018-03-04T15:43:28.979Z,16.87
2018-03-04T15:45:55.590Z,25.30
2018-03-04T15:48:22.130Z,18.12
2018-03-04T15:50:49.453Z,25.30
2018-03-04T15:53:15.968Z,35.90
2018-03-04T15:55:42.562Z,18.47
2018-03-04T15:58:09.087Z,31.10
2018-03-04T16:00:35.624Z,32.87
2018-03-04T16:03:02.836Z,31.17
2018-03-04T16:05:29.329Z,23.90
2018-03-04T16:07:55.899Z,24.27
2018-03-04T16:10:22.322Z,27.30
2018-03-04T16:12:49.018Z,25.17
2018-03-04T16:15:15.488Z,31.03
2018-03-04T16:17:41.974Z,33.47
2018-03-04T16:20:08.553Z,39.20
2018-03-04T16:22:35.102Z,38.60
2018-03-04T16:25:01.609Z,35.50
2018-03-04T16:27:28.179Z,38.50
2018-03-04T16:29:54.903Z,41.73
2018-03-04T16:32:22.238Z,49.20
2018-03-04T16:34:48.771Z,47.57
2018-03-04T16:37:15.383Z,44.25
2018-03-04T16:39:42.702Z,38.97
2018-03-04T16:42:09.292Z,46.67
2018-03-04T16:44:36.111Z,47.65
2018-03-04T16:47:03.370Z,46.53
2018-03-04T16:49:29.890Z,54.05
2018-03-04T16:51:57.161Z,45.95
2018-03-04T16:54:23.629Z,47.70
2018-03-04T16:56:50.113Z,43.70
2018-03-04T16:59:17.344Z,54.00
2018-03-04T17:01:43.969Z,37.13
2018-03-04T17:04:10.482Z,25.52
2018-03-04T17:06:37.028Z,39.45
2018-03-04T17:09:03.569Z,37.05
2018-03-04T17:11:29.999Z,48.17
2018-03-04T17:13:56.478Z,47.00
2018-03-04T17:16:23.802Z,44.67
2018-03-04T17:18:50.369Z,52.00
2018-03-04T17:21:17.566Z,53.35
2018-03-04T17:23:44.138Z,50.80
2018-03-04T17:26:10.650Z,55.30
2018-03-04T17:28:37.999Z,50.45
2018-03-04T17:31:04.643Z,46.85
2018-03-04T17:33:31.302Z,40.40
2018-03-04T17:35:57.981Z,47.05
2018-03-04T17:38:24.639Z,41.03
2018-03-04T17:40:51.183Z,37.42
2018-03-04T17:43:18.398Z,36.40
2018-03-04T17:45:44.991Z,40.10
2018-03-04T17:48:11.506Z,37.45
2018-03-04T17:50:38.008Z,31.90
2018-03-04T17:53:04.497Z,42.45
2018-03-04T17:55:31.102Z,28.40
2018-03-04T17:57:57.650Z,33.97
2018-03-04T18:00:24.192Z,40.92
2018-03-04T18:05:47.328Z,40.03
2018-03-04T18:08:13.903Z,52.22
2018-03-04T18:10:41.105Z,42.95
2018-03-04T18:13:07.779Z,29.35
2018-03-04T18:15:34.336Z,41.35
2018-03-04T18:18:01.000Z,46.72
2018-03-04T18:20:27.610Z,51.50
2018-03-04T18:23:01.154Z,53.47
2018-03-04T18:25:28.469Z,36.60
2018-03-04T18:27:55.780Z,40.15
2018-03-04T18:30:22.300Z,40.65
2018-03-04T18:32:48.790Z,36.55
2018-03-04T18:35:16.269Z,32.13
2018-03-04T18:37:42.799Z,45.50
2018-03-04T18:40:09.357Z,54.17
2018-03-04T18:42:37.019Z,44.03
2018-03-04T18:45:04.256Z,46.63
2018-03-04T18:47:31.551Z,50.75
2018-03-04T18:49:58.059Z,43.42
2018-03-04T18:52:24.643Z,40.70
2018-03-04T18:54:51.278Z,45.80
2018-03-04T18:57:19.844Z,52.17
2018-03-04T18:59:46.423Z,46.53
2018-03-04T19:02:13.711Z,39.53
2018-03-04T19:04:40.491Z,44.35
2018-03-04T19:07:07.665Z,43.97
2018-03-04T19:09:34.261Z,51.33
2018-03-04T19:12:00.696Z,33.33
2018-03-04T19:14:27.369Z,28.92
2018-03-04T19:16:53.888Z,34.03
2018-03-04T19:19:20.439Z,37.25
2018-03-04T19:21:47.168Z,45.58
2018-03-04T19:24:13.671Z,45.85
2018-03-04T19:26:40.314Z,46.75
2018-03-04T19:29:06.930Z,45.40
2018-03-04T19:31:33.461Z,40.95
2018-03-04T19:34:00.946Z,42.22
2018-03-04T19:36:27.442Z,46.55
2018-03-04T19:38:54.730Z,43.25
2018-03-04T19:41:21.630Z,44.67
2018-03-04T19:43:48.245Z,44.17
2018-03-04T19:46:14.770Z,48.90
2018-03-04T19:48:41.329Z,48.60
2018-03-04T19:51:08.730Z,50.80
2018-03-04T19:53:36.062Z,44.75
2018-03-04T19:56:02.803Z,49.15
2018-03-04T19:58:30.137Z,51.55
2018-03-04T20:00:57.047Z,50.33
2018-03-04T20:03:23.576Z,47.25
2018-03-04T20:05:50.097Z,50.45
2018-03-04T20:08:16.614Z,51.90
2018-03-04T20:10:43.147Z,45.58
2018-03-04T20:13:10.694Z,49.10
2018-03-04T20:15:37.470Z,45.15
2018-03-04T20:18:03.990Z,36.88
2018-03-04T20:20:30.640Z,49.55
2018-03-04T20:22:57.414Z,46.53
2018-03-04T20:25:23.976Z,48.87
2018-03-04T20:27:51.496Z,50.20
2018-03-04T20:30:18.151Z,52.17
2018-03-04T20:32:44.755Z,51.20
2018-03-04T20:35:11.401Z,55.08
2018-03-04T20:37:37.925Z,49.72
2018-03-04T20:40:05.300Z,52.22
2018-03-04T20:42:32.701Z,50.05
2018-03-04T20:44:59.507Z,46.42
2018-03-04T20:47:29.950Z,50.65
2018-03-04T20:49:56.476Z,45.83
2018-03-04T20:52:23.282Z,47.78
2018-03-04T20:54:50.378Z,46.33
2018-03-04T20:57:17.140Z,46.60
2018-03-04T20:59:43.803Z,43.22
2018-03-04T21:02:13.306Z,47.20
2018-03-04T21:04:40.081Z,40.58
2018-03-04T21:07:06.694Z,42.67
2018-03-04T21:09:33.228Z,43.75
2018-03-04T21:12:01.272Z,42.45
2018-03-04T21:14:27.964Z,41.90
2018-03-04T21:16:54.716Z,40.50
2018-03-04T21:19:22.163Z,39.78
2018-03-04T21:21:49.287Z,43.90
2018-03-04T21:24:16.019Z,40.95
2018-03-04T21:26:44.300Z,37.80
2018-03-04T21:29:11.657Z,39.65
2018-03-04T21:31:40.127Z,43.55
2018-03-04T21:34:06.998Z,45.35
2018-03-04T21:36:33.620Z,45.75
2018-03-04T21:39:00.537Z,36.67
2018-03-04T21:41:27.163Z,38.85
2018-03-04T21:43:54.907Z,44.30
2018-03-04T21:46:21.572Z,39.88
2018-03-04T21:48:48.882Z,41.83
2018-03-04T21:51:16.030Z,42.72
2018-03-04T21:53:42.731Z,40.88
2018-03-04T21:56:09.435Z,95.45
2018-03-04T21:58:36.090Z,49.20
2018-03-04T22:01:02.630Z,40.40
2018-03-04T22:03:29.299Z,43.42
2018-03-04T22:05:56.086Z,41.42
2018-03-04T22:08:23.586Z,43.38
2018-03-04T22:10:50.306Z,44.50
2018-03-04T22:13:16.781Z,50.88
2018-03-04T22:15:43.476Z,56.80
2018-03-04T22:18:10.887Z,46.50
2018-03-04T22:20:37.442Z,46.37
2018-03-04T22:23:04.061Z,45.25
2018-03-04T22:25:31.932Z,43.25
2018-03-04T22:28:00.549Z,41.20
2018-03-04T22:30:27.907Z,42.28
2018-03-04T22:32:55.347Z,42.90
2018-03-04T22:35:22.768Z,45.28
2018-03-04T22:37:49.396Z,41.17
2018-03-04T22:40:16.121Z,43.08
2018-03-04T22:42:42.732Z,44.40
2018-03-04T22:45:10.281Z,40.28
2018-03-04T22:47:37.681Z,47.08
2018-03-04T22:50:19.154Z,32.95
2018-03-04T22:52:58.416Z,46.53
2018-03-04T22:55:33.228Z,43.47
2018-03-04T22:58:00.562Z,46.92
2018-03-04T23:00:27.059Z,43.13
2018-03-04T23:02:53.589Z,45.33
2018-03-04T23:05:20.050Z,44.83
2018-03-04T23:07:46.532Z,47.10
2018-03-04T23:10:13.051Z,44.85
2018-03-04T23:12:40.176Z,47.40
2018-03-04T23:15:06.612Z,47.90
2018-03-04T23:17:33.837Z,41.35
2018-03-04T23:20:00.302Z,43.95
2018-03-04T23:22:27.454Z,47.28
2018-03-04T23:24:54.645Z,46.95
2018-03-04T23:27:21.098Z,49.35
2018-03-04T23:29:47.504Z,49.75
2018-03-04T23:32:14.360Z,49.00
2018-03-04T23:34:40.771Z,51.70
2018-03-04T23:37:07.222Z,53.08
2018-03-04T23:39:33.645Z,46.72
2018-03-04T23:42:00.205Z,53.03
2018-03-04T23:44:26.626Z,56.47
2018-03-04T23:46:53.149Z,55.22
2018-03-04T23:49:19.604Z,54.22
2018-03-04T23:51:46.180Z,49.67
2018-03-04T23:54:13.488Z,45.33
2018-03-04T23:56:39.942Z,69.30
2018-03-04T23:59:06.414Z,62.55
